createdAt,value
2019-03-29T10:19:08.791Z,28.8
2019-03-29T10:44:56.515Z,30.9
2019-03-29T10:55:52.687Z,31.0
2019-03-29T11:06:13.572Z,30.9
2019-03-29T11:16:58.802Z,31.5
2019-03-29T11:27:25.467Z,31.5
2019-03-29T11:38:24.413Z,31.9
2019-03-29T11:48:42.335Z,31.9
2019-03-29T11:59:35.194Z,32.4
2019-03-29T12:11:25.831Z,32.5
2019-03-29T12:21:47.077Z,32.5
2019-03-29T12:45:50.531Z,32.3
2019-03-29T13:00:37.894Z,31.5
2019-03-29T13:11:01.862Z,31.4
2019-03-29T13:21:49.287Z,30.8
2019-03-29T13:32:09.348Z,30.8
2019-03-29T13:42:23.116Z,30.7
2019-03-29T13:52:45.736Z,30.5
2019-03-29T14:03:09.769Z,30.4
2019-03-29T14:14:12.637Z,30.2
2019-03-29T14:25:02.051Z,30.0
2019-03-29T14:35:50.094Z,30.0
2019-03-29T14:47:18.656Z,29.9
2019-03-29T15:38:20.539Z,29.9
2019-03-29T15:53:44.917Z,28.9
2019-03-29T16:19:32.015Z,27.2
2019-03-29T16:31:31.112Z,26.1
2019-03-29T17:18:39.929Z,22.5
2019-03-29T17:45:00.739Z,20.7
2019-03-29T18:03:05.526Z,19.8
2019-03-29T18:20:47.731Z,18.9
2019-03-29T18:38:39.749Z,18.0
2019-03-29T18:51:32.763Z,17.2
2019-03-29T19:02:28.045Z,16.7
2019-03-29T19:13:23.801Z,16.0
2019-03-29T19:23:38.065Z,16.0
2019-03-29T19:33:52.239Z,15.5
2019-03-29T19:44:47.273Z,14.6
2019-03-29T19:55:41.864Z,14.1
2019-03-29T20:05:54.377Z,14.1
2019-03-29T20:16:49.293Z,13.3
2019-03-29T20:27:03.034Z,13.3
2019-03-29T20:37:16.520Z,13.0
2019-03-29T20:48:02.818Z,12.3
2019-03-29T20:59:21.011Z,11.9
2019-03-29T21:09:37.597Z,11.9
2019-03-29T21:21:01.775Z,11.3
2019-03-29T21:31:56.480Z,11.0
2019-03-29T21:42:13.945Z,11.0
2019-03-29T21:53:04.196Z,10.4
2019-03-29T22:03:24.176Z,10.5
2019-03-29T22:13:38.971Z,10.2
2019-03-29T22:23:58.380Z,10.0
2019-03-29T22:34:45.787Z,9.7
2019-03-29T22:45:12.098Z,9.5
2019-03-29T22:56:01.736Z,9.1
2019-03-29T23:07:01.946Z,8.9
2019-03-29T23:18:06.048Z,8.7
2019-03-29T23:29:08.006Z,8.5
2019-03-29T23:39:21.632Z,8.5
2019-03-29T23:50:24.477Z,8.1
